createdAt,value
2024-02-02T02:20:34.296Z,369.00
2024-02-02T02:21:34.701Z,372.00
2024-02-02T02:22:35.579Z,374.00
2024-02-02T02:23:36.460Z,374.00
2024-02-02T02:24:37.396Z,373.00
2024-02-02T02:25:38.404Z,370.00
2024-02-02T02:26:38.773Z,369.00
2024-02-02T02:27:39.655Z,376.00
2024-02-02T02:28:40.545Z,374.00
2024-02-02T02:29:41.421Z,373.00
2024-02-02T02:30:42.341Z,374.00
2024-02-02T02:31:43.239Z,376.00
2024-02-02T02:32:44.151Z,376.00
2024-02-02T02:33:45.303Z,373.00
2024-02-02T02:34:45.786Z,373.00
2024-02-02T02:35:46.888Z,369.00
2024-02-02T02:36:47.251Z,369.00
2024-02-02T02:37:48.121Z,368.00
2024-02-02T02:38:49.023Z,368.00
2024-02-02T02:39:49.880Z,371.00
2024-02-02T02:40:50.800Z,373.00
2024-02-02T02:41:51.698Z,373.00
2024-02-02T02:42:52.566Z,374.00
2024-02-02T02:43:53.462Z,375.00
2024-02-02T02:44:54.327Z,375.00
2024-02-02T02:45:55.242Z,374.00
2024-02-02T02:46:56.122Z,376.00
2024-02-02T02:47:57.126Z,376.00
2024-02-02T02:48:57.666Z,376.00
2024-02-02T02:49:58.089Z,379.00
2024-02-02T02:50:59.186Z,376.00
2024-02-02T02:51:59.537Z,378.00
2024-02-02T02:53:00.435Z,371.00
2024-02-02T02:54:01.303Z,369.00
2024-02-02T02:55:02.198Z,368.00
2024-02-02T02:56:03.108Z,372.00
2024-02-02T02:57:04.012Z,365.00
2024-02-02T02:58:04.857Z,368.00
2024-02-02T02:59:05.742Z,373.00
2024-02-02T03:00:06.652Z,375.00
2024-02-02T03:01:07.731Z,378.00
2024-02-02T03:02:08.064Z,375.00
2024-02-02T03:03:09.055Z,376.00
2024-02-02T03:04:09.524Z,376.00
2024-02-02T03:05:10.384Z,376.00
2024-02-02T03:06:11.412Z,374.00
2024-02-02T03:07:11.994Z,371.00
2024-02-02T03:08:12.389Z,375.00
2024-02-02T03:09:13.303Z,374.00
2024-02-02T03:10:14.154Z,373.00
2024-02-02T03:11:15.073Z,375.00
2024-02-02T03:12:15.990Z,375.00
2024-02-02T03:13:16.824Z,370.00
2024-02-02T03:14:17.705Z,370.00
2024-02-02T03:15:18.642Z,368.00
2024-02-02T03:16:19.620Z,365.00
2024-02-02T03:17:19.988Z,368.00
2024-02-02T03:18:21.083Z,368.00
2024-02-02T03:19:21.645Z,370.00
2024-02-02T03:20:22.026Z,373.00
2024-02-02T03:21:23.126Z,368.00
2024-02-02T03:22:23.484Z,367.00
2024-02-02T03:23:24.361Z,368.00
2024-02-02T03:24:25.286Z,372.00
2024-02-02T03:25:26.127Z,369.00
2024-02-02T03:26:27.160Z,371.00
2024-02-02T03:27:27.622Z,370.00
2024-02-02T03:28:28.461Z,368.00
2024-02-02T03:29:29.338Z,371.00
2024-02-02T03:30:30.242Z,372.00
2024-02-02T03:31:31.124Z,374.00
2024-02-02T03:32:32.043Z,374.00
2024-02-02T03:33:33.022Z,378.00
2024-02-02T03:34:33.490Z,377.00
2024-02-02T03:35:34.367Z,375.00
2024-02-02T03:36:35.375Z,371.00
2024-02-02T03:37:36.237Z,371.00
2024-02-02T03:38:37.108Z,373.00
2024-02-02T03:39:38.046Z,373.00
2024-02-02T03:40:38.888Z,370.00
2024-02-02T03:41:39.794Z,372.00
2024-02-02T03:42:40.688Z,369.00
2024-02-02T03:43:41.559Z,369.00
2024-02-02T03:44:42.438Z,373.00
2024-02-02T03:45:43.318Z,375.00
2024-02-02T03:46:44.341Z,372.00
2024-02-02T03:47:44.750Z,372.00
2024-02-02T03:48:45.665Z,371.00
2024-02-02T03:49:46.565Z,370.00
2024-02-02T03:50:47.421Z,368.00
2024-02-02T03:51:48.339Z,371.00
2024-02-02T03:52:49.199Z,369.00
2024-02-02T03:53:50.113Z,368.00
2024-02-02T03:54:50.962Z,369.00
2024-02-02T03:55:51.840Z,370.00
2024-02-02T03:56:52.822Z,371.00
2024-02-02T03:57:53.680Z,370.00
2024-02-02T03:58:54.548Z,372.00
2024-02-02T03:59:55.469Z,371.00
2024-02-02T04:00:56.324Z,368.00
2024-02-02T04:01:57.329Z,370.00
2024-02-02T04:02:57.777Z,371.00
2024-02-02T04:03:58.683Z,371.00
2024-02-02T04:04:59.670Z,369.00
2024-02-02T04:06:00.563Z,366.00
2024-02-02T04:07:01.513Z,368.00
2024-02-02T04:08:02.340Z,369.00
2024-02-02T04:09:03.282Z,370.00
2024-02-02T04:10:04.148Z,368.00
2024-02-02T04:11:05.011Z,369.00
2024-02-02T04:12:05.998Z,379.00
2024-02-02T04:13:06.820Z,372.00
2024-02-02T04:14:07.702Z,370.00
2024-02-02T04:15:08.636Z,366.00
2024-02-02T04:16:09.483Z,369.00
2024-02-02T04:17:10.515Z,372.00
2024-02-02T04:18:11.042Z,373.00
2024-02-02T04:19:11.495Z,369.00
2024-02-02T04:20:12.361Z,369.00
2024-02-02T04:21:13.282Z,367.00
2024-02-02T04:22:14.199Z,370.00
2024-02-02T04:23:15.049Z,370.00
2024-02-02T04:24:16.000Z,371.00
2024-02-02T04:25:16.861Z,373.00
2024-02-02T04:26:17.739Z,374.00
2024-02-02T04:27:18.756Z,371.00
2024-02-02T04:28:19.159Z,368.00
2024-02-02T04:29:20.019Z,373.00
2024-02-02T04:30:20.949Z,377.00
2024-02-02T04:31:21.814Z,379.00
2024-02-02T04:32:22.715Z,380.00
2024-02-02T04:33:23.719Z,379.00
2024-02-02T04:34:24.395Z,374.00
2024-02-02T04:35:24.830Z,379.00
2024-02-02T04:36:25.811Z,381.00
2024-02-02T04:37:26.363Z,383.00
2024-02-02T04:38:26.731Z,383.00
2024-02-02T04:39:27.693Z,382.00
2024-02-02T04:40:28.549Z,379.00
2024-02-02T04:41:29.458Z,378.00
2024-02-02T04:42:30.486Z,381.00
2024-02-02T04:43:30.905Z,374.00
2024-02-02T04:44:31.749Z,378.00
2024-02-02T04:45:32.707Z,380.00
2024-02-02T04:46:33.573Z,377.00
2024-02-02T04:47:34.531Z,375.00
2024-02-02T04:48:35.544Z,379.00
2024-02-02T04:49:36.043Z,375.00
2024-02-02T04:50:36.926Z,375.00
2024-02-02T04:51:37.942Z,371.00
2024-02-02T04:52:38.949Z,372.00
2024-02-02T04:53:39.311Z,366.00
2024-02-02T04:54:40.197Z,369.00
2024-02-02T04:55:41.118Z,369.00
2024-02-02T04:56:41.994Z,366.00
2024-02-02T04:57:42.915Z,370.00
2024-02-02T04:58:43.796Z,368.00
2024-02-02T04:59:44.676Z,370.00
2024-02-02T05:00:45.688Z,368.00
2024-02-02T05:01:46.553Z,369.00
2024-02-02T05:02:47.475Z,371.00
2024-02-02T05:03:48.495Z,370.00
2024-02-02T05:04:48.873Z,372.00
2024-02-02T05:05:49.746Z,370.00
2024-02-02T05:06:50.630Z,372.00
2024-02-02T05:07:51.592Z,381.00
2024-02-02T05:08:52.483Z,377.00
2024-02-02T05:09:53.330Z,375.00
2024-02-02T05:10:54.216Z,373.00
2024-02-02T05:11:55.139Z,372.00
2024-02-02T05:12:56.192Z,374.00
2024-02-02T05:13:56.542Z,374.00
2024-02-02T05:14:57.431Z,374.00
2024-02-02T05:15:58.310Z,377.00
2024-02-02T05:16:58.915Z,376.00
2024-02-02T05:18:00.022Z,371.00
2024-02-02T05:19:00.539Z,368.00
2024-02-02T05:20:00.975Z,366.00
2024-02-02T05:21:01.876Z,370.00
2024-02-02T05:22:02.796Z,375.00
2024-02-02T05:23:03.852Z,373.00
2024-02-02T05:24:15.910Z,377.00
2024-02-02T05:25:05.980Z,377.00
2024-02-02T05:26:05.841Z,377.00
2024-02-02T05:27:06.746Z,380.00
2024-02-02T05:28:07.837Z,376.00
2024-02-02T05:29:08.213Z,381.00
2024-02-02T05:30:09.146Z,375.00
2024-02-02T05:31:09.988Z,377.00
2024-02-02T05:32:10.862Z,373.00
2024-02-02T05:33:11.874Z,370.00
2024-02-02T05:34:12.416Z,371.00
2024-02-02T05:35:12.858Z,370.00
2024-02-02T05:36:13.759Z,373.00
2024-02-02T05:37:14.605Z,369.00
2024-02-02T05:38:15.655Z,368.00
2024-02-02T05:39:16.087Z,370.00
2024-02-02T05:40:16.949Z,362.00
2024-02-02T05:41:17.830Z,365.00
2024-02-02T05:42:18.768Z,365.00
2024-02-02T05:43:19.616Z,364.00
2024-02-02T05:44:20.496Z,367.00
2024-02-02T05:45:21.389Z,367.00
2024-02-02T05:46:22.253Z,366.00
2024-02-02T05:47:23.141Z,369.00
2024-02-02T05:48:24.118Z,369.00
2024-02-02T05:49:25.158Z,365.00
2024-02-02T05:50:25.603Z,366.00
2024-02-02T05:51:26.598Z,362.00
2024-02-02T05:52:27.441Z,363.00
2024-02-02T05:53:28.483Z,366.00
2024-02-02T05:54:28.963Z,370.00
2024-02-02T05:55:29.355Z,364.00
2024-02-02T05:56:30.243Z,362.00
2024-02-02T05:57:31.200Z,366.00
2024-02-02T05:58:32.246Z,366.00
2024-02-02T05:59:32.633Z,370.00
2024-02-02T06:00:33.512Z,377.00
2024-02-02T06:01:34.404Z,372.00
2024-02-02T06:02:35.288Z,370.00
2024-02-02T06:03:36.321Z,368.00
2024-02-02T06:04:36.764Z,369.00
2024-02-02T06:05:37.685Z,369.00
2024-02-02T06:06:38.664Z,369.00
2024-02-02T06:07:39.069Z,371.00
2024-02-02T06:08:40.139Z,369.00
2024-02-02T06:09:40.553Z,368.00
2024-02-02T06:10:41.512Z,367.00
2024-02-02T06:11:42.371Z,369.00
2024-02-02T06:12:43.276Z,372.00
2024-02-02T06:13:44.276Z,368.00
2024-02-02T06:14:44.663Z,366.00
2024-02-02T06:15:45.574Z,364.00
2024-02-02T06:16:46.461Z,365.00
2024-02-02T06:17:47.367Z,360.00
2024-02-02T06:18:48.422Z,358.00
2024-02-02T06:19:48.986Z,359.00
2024-02-02T06:20:49.858Z,359.00
2024-02-02T06:21:50.738Z,360.00
2024-02-02T06:22:51.645Z,362.00
2024-02-02T06:23:52.708Z,364.00
2024-02-02T06:24:53.065Z,366.00
2024-02-02T06:25:53.935Z,363.00
2024-02-02T06:26:54.826Z,362.00
2024-02-02T06:27:55.693Z,360.00
2024-02-02T06:28:56.692Z,362.00
2024-02-02T06:29:57.562Z,363.00
2024-02-02T06:30:58.410Z,362.00
2024-02-02T06:31:59.292Z,364.00
2024-02-02T06:33:00.314Z,361.00
2024-02-02T06:34:00.872Z,361.00
2024-02-02T06:35:01.569Z,360.00
2024-02-02T06:36:02.100Z,357.00
2024-02-02T06:37:02.969Z,360.00
2024-02-02T06:38:03.860Z,359.00
2024-02-02T06:39:04.921Z,356.00
2024-02-02T06:40:05.683Z,357.00
2024-02-02T06:41:06.060Z,357.00
2024-02-02T06:42:07.006Z,357.00
2024-02-02T06:43:07.916Z,357.00
2024-02-02T06:44:08.817Z,360.00
2024-02-02T06:45:09.740Z,358.00
2024-02-02T06:46:10.598Z,357.00
2024-02-02T06:47:11.482Z,362.00
2024-02-02T06:48:12.496Z,358.00
2024-02-02T06:49:13.308Z,363.00
2024-02-02T06:50:13.842Z,366.00
2024-02-02T06:51:14.820Z,368.00
2024-02-02T06:52:15.668Z,366.00
2024-02-02T06:53:16.579Z,373.00
2024-02-02T06:54:17.611Z,372.00
2024-02-02T06:55:18.487Z,370.00
2024-02-02T06:56:19.364Z,371.00
2024-02-02T06:57:20.326Z,366.00
2024-02-02T06:58:21.185Z,364.00
2024-02-02T06:59:22.104Z,361.00
2024-02-02T07:00:23.016Z,365.00
2024-02-02T07:01:23.900Z,368.00
2024-02-02T07:02:24.759Z,360.00
2024-02-02T07:03:25.750Z,361.00
2024-02-02T07:04:26.346Z,359.00
2024-02-02T07:05:26.751Z,362.00
2024-02-02T07:06:27.784Z,363.00
2024-02-02T07:07:28.181Z,367.00
2024-02-02T07:08:29.048Z,370.00
2024-02-02T07:09:30.057Z,366.00
2024-02-02T07:10:30.909Z,363.00
2024-02-02T07:11:34.138Z,360.00
2024-02-02T07:12:32.702Z,358.00
2024-02-02T07:13:33.111Z,363.00
2024-02-02T07:14:34.032Z,364.00
2024-02-02T07:15:34.997Z,365.00
2024-02-02T07:16:35.415Z,364.00
2024-02-02T07:17:36.424Z,362.00
2024-02-02T07:18:37.558Z,357.00
2024-02-02T07:19:38.281Z,355.00
2024-02-02T07:20:38.685Z,354.00
2024-02-02T07:21:39.603Z,352.00
2024-02-02T07:22:40.471Z,353.00
2024-02-02T07:23:41.342Z,354.00
2024-02-02T07:24:42.467Z,354.00
2024-02-02T07:25:42.806Z,353.00
2024-02-02T07:26:43.692Z,348.00
2024-02-02T07:27:44.566Z,347.00
2024-02-02T07:28:45.447Z,348.00
2024-02-02T07:29:46.428Z,345.00
2024-02-02T07:30:47.304Z,344.00
2024-02-02T07:31:48.246Z,346.00
2024-02-02T07:32:49.149Z,349.00
2024-02-02T07:33:50.148Z,350.00
2024-02-02T07:34:50.919Z,353.00
2024-02-02T07:35:51.337Z,352.00
2024-02-02T07:36:52.221Z,353.00
2024-02-02T07:37:53.093Z,354.00
2024-02-02T07:38:53.995Z,352.00
2024-02-02T07:39:54.903Z,354.00
2024-02-02T07:40:55.753Z,355.00
2024-02-02T07:41:56.662Z,354.00
2024-02-02T07:42:57.568Z,354.00
2024-02-02T07:43:58.432Z,352.00
2024-02-02T07:44:59.391Z,355.00
2024-02-02T07:46:00.263Z,351.00
2024-02-02T07:47:01.141Z,353.00
2024-02-02T07:48:02.128Z,351.00
2024-02-02T07:49:02.592Z,351.00
2024-02-02T07:50:03.499Z,354.00
2024-02-02T07:51:04.428Z,355.00
2024-02-02T07:52:05.282Z,351.00
2024-02-02T07:53:06.175Z,355.00
2024-02-02T07:54:07.097Z,351.00
2024-02-02T07:55:08.009Z,354.00
2024-02-02T07:56:08.843Z,353.00
2024-02-02T07:57:09.771Z,349.00
2024-02-02T07:58:10.610Z,347.00
2024-02-02T07:59:11.494Z,345.00
2024-02-02T08:00:12.551Z,345.00
2024-02-02T08:01:13.004Z,348.00
2024-02-02T08:02:13.477Z,360.00
2024-02-02T08:03:14.451Z,353.00
2024-02-02T08:04:15.391Z,358.00
2024-02-02T08:05:16.355Z,357.00
2024-02-02T08:06:17.287Z,356.00
2024-02-02T08:07:18.249Z,354.00
2024-02-02T08:08:19.131Z,354.00
2024-02-02T08:09:20.136Z,353.00
2024-02-02T08:10:20.690Z,350.00
2024-02-02T08:11:21.045Z,350.00
2024-02-02T08:12:21.984Z,351.00
2024-02-02T08:13:22.826Z,355.00
2024-02-02T08:14:23.705Z,354.00
2024-02-02T08:15:24.654Z,354.00
2024-02-02T08:16:25.496Z,355.00
2024-02-02T08:17:26.388Z,352.00
2024-02-02T08:18:27.402Z,349.00
2024-02-02T08:19:27.909Z,346.00
2024-02-02T08:20:28.400Z,344.00
2024-02-02T08:21:29.330Z,345.00
2024-02-02T08:22:30.189Z,342.00
2024-02-02T08:23:31.072Z,344.00
2024-02-02T08:24:32.012Z,347.00
2024-02-02T08:25:32.950Z,350.00
2024-02-02T08:26:33.833Z,349.00
2024-02-02T08:27:34.726Z,353.00
2024-02-02T08:28:42.524Z,351.00
2024-02-02T08:29:37.405Z,350.00
2024-02-02T08:30:37.426Z,350.00
2024-02-02T08:31:37.845Z,349.00
2024-02-02T08:32:38.750Z,347.00
2024-02-02T08:33:39.641Z,351.00
2024-02-02T08:34:40.568Z,348.00
2024-02-02T08:35:41.547Z,348.00
2024-02-02T08:36:42.430Z,348.00
2024-02-02T08:37:43.314Z,350.00
2024-02-02T08:38:44.201Z,351.00
2024-02-02T08:39:45.100Z,355.00
2024-02-02T08:40:46.371Z,350.00
2024-02-02T08:41:46.818Z,354.00
2024-02-02T08:42:47.712Z,356.00
2024-02-02T08:43:49.161Z,355.00
2024-02-02T08:44:49.098Z,354.00
2024-02-02T08:45:50.053Z,356.00
2024-02-02T08:46:50.913Z,356.00
2024-02-02T08:47:51.837Z,353.00
2024-02-02T08:48:52.927Z,348.00
2024-02-02T08:49:53.434Z,349.00
2024-02-02T08:50:54.354Z,348.00
2024-02-02T08:51:55.278Z,353.00
2024-02-02T08:52:56.161Z,350.00
2024-02-02T08:53:57.087Z,351.00
2024-02-02T08:54:57.963Z,357.00
2024-02-02T08:55:59.006Z,356.00
2024-02-02T08:56:59.386Z,353.00
2024-02-02T08:58:00.246Z,351.00
2024-02-02T08:59:01.138Z,351.00
2024-02-02T09:00:02.053Z,351.00
2024-02-02T09:01:03.022Z,354.00
2024-02-02T09:02:03.889Z,354.00
2024-02-02T09:03:05.978Z,352.00
2024-02-02T09:04:05.756Z,357.00
2024-02-02T09:05:06.137Z,355.00
2024-02-02T09:06:07.204Z,355.00
2024-02-02T09:07:07.721Z,358.00
2024-02-02T09:08:08.603Z,366.00
2024-02-02T09:09:09.637Z,365.00
2024-02-02T09:10:10.279Z,365.00
2024-02-02T09:11:10.889Z,365.00
2024-02-02T09:12:11.269Z,358.00
2024-02-02T09:13:12.138Z,355.00
2024-02-02T09:14:13.014Z,352.00
2024-02-02T09:15:13.959Z,352.00
2024-02-02T09:16:14.832Z,354.00
2024-02-02T09:17:15.721Z,352.00
2024-02-02T09:18:16.663Z,351.00
2024-02-02T09:19:17.592Z,356.00
2024-02-02T09:20:18.440Z,353.00
2024-02-02T09:21:19.482Z,350.00
2024-02-02T09:22:19.848Z,351.00
2024-02-02T09:23:20.716Z,351.00
2024-02-02T09:24:21.650Z,352.00
2024-02-02T09:25:22.495Z,351.00
2024-02-02T09:26:23.582Z,351.00
2024-02-02T09:27:24.025Z,345.00
2024-02-02T09:28:24.933Z,343.00
2024-02-02T09:29:25.450Z,347.00
2024-02-02T09:30:26.452Z,348.00
2024-02-02T09:31:27.364Z,349.00
2024-02-02T09:32:28.263Z,346.00
2024-02-02T09:33:29.228Z,345.00
2024-02-02T09:34:30.165Z,344.00
2024-02-02T09:35:31.025Z,345.00
2024-02-02T09:36:31.952Z,346.00
2024-02-02T09:37:32.828Z,352.00
2024-02-02T09:38:33.701Z,346.00
2024-02-02T09:39:34.292Z,351.00
2024-02-02T09:40:35.141Z,348.00
2024-02-02T09:41:36.080Z,349.00
2024-02-02T09:42:37.007Z,348.00
2024-02-02T09:43:37.859Z,351.00
2024-02-02T09:44:38.723Z,349.00
2024-02-02T09:45:39.743Z,346.00
2024-02-02T09:46:40.236Z,350.00
2024-02-02T09:47:41.228Z,352.00
2024-02-02T09:48:42.293Z,352.00
2024-02-02T09:49:42.804Z,350.00
2024-02-02T09:50:43.688Z,350.00
2024-02-02T09:51:44.619Z,347.00
2024-02-02T09:52:45.503Z,348.00
2024-02-02T09:53:46.450Z,348.00
2024-02-02T09:54:47.343Z,345.00
2024-02-02T09:55:48.228Z,345.00
2024-02-02T09:56:49.278Z,354.00
2024-02-02T09:57:49.624Z,353.00
2024-02-02T09:58:50.501Z,352.00
2024-02-02T09:59:51.378Z,351.00
2024-02-02T10:00:52.316Z,351.00
2024-02-02T10:01:53.327Z,352.00
2024-02-02T10:02:53.707Z,350.00
2024-02-02T10:03:54.652Z,356.00
2024-02-02T10:04:55.508Z,354.00
2024-02-02T10:05:56.460Z,352.00
2024-02-02T10:06:57.419Z,349.00
2024-02-02T10:07:57.838Z,348.00
2024-02-02T10:08:58.732Z,348.00
2024-02-02T10:09:59.419Z,347.00
2024-02-02T10:11:00.300Z,346.00
2024-02-02T10:12:01.405Z,349.00
2024-02-02T10:13:01.731Z,349.00
2024-02-02T10:14:02.625Z,350.00
2024-02-02T10:15:04.789Z,349.00
2024-02-02T10:16:04.481Z,348.00
2024-02-02T10:17:05.497Z,347.00
2024-02-02T10:18:05.985Z,347.00
2024-02-02T10:19:06.562Z,347.00
2024-02-02T10:20:07.028Z,344.00
2024-02-02T10:21:08.308Z,343.00
2024-02-02T10:22:08.748Z,349.00
2024-02-02T10:23:09.625Z,345.00
2024-02-02T10:24:15.631Z,347.00
2024-02-02T10:25:12.275Z,348.00
2024-02-02T10:26:12.156Z,349.00
2024-02-02T10:27:13.110Z,349.00
2024-02-02T10:28:13.963Z,350.00
2024-02-02T10:29:14.844Z,348.00
2024-02-02T10:30:15.762Z,350.00
2024-02-02T10:31:16.604Z,349.00
2024-02-02T10:32:17.514Z,348.00
2024-02-02T10:33:18.544Z,347.00
2024-02-02T10:34:19.079Z,344.00
2024-02-02T10:35:19.448Z,344.00
2024-02-02T10:36:20.387Z,345.00
2024-02-02T10:37:20.966Z,347.00
2024-02-02T10:38:21.844Z,345.00
2024-02-02T10:39:22.749Z,346.00
2024-02-02T10:40:23.246Z,343.00
2024-02-02T10:41:24.135Z,352.00
2024-02-02T10:42:25.212Z,346.00
2024-02-02T10:43:25.568Z,347.00
2024-02-02T10:44:26.465Z,346.00
2024-02-02T10:45:27.394Z,345.00
2024-02-02T10:46:28.263Z,345.00
2024-02-02T10:47:29.296Z,345.00
2024-02-02T10:48:29.913Z,347.00
2024-02-02T10:49:30.380Z,347.00
2024-02-02T10:50:31.258Z,349.00
2024-02-02T10:51:32.278Z,349.00
2024-02-02T10:52:32.711Z,350.00
2024-02-02T10:53:33.592Z,340.00
2024-02-02T10:54:34.536Z,342.00
2024-02-02T10:55:35.423Z,342.00
2024-02-02T10:56:36.304Z,345.00
2024-02-02T10:57:37.422Z,345.00
2024-02-02T10:58:37.846Z,347.00
2024-02-02T10:59:38.715Z,350.00
2024-02-02T11:00:39.762Z,350.00
2024-02-02T11:01:40.275Z,345.00
2024-02-02T11:02:41.165Z,351.00
2024-02-02T11:03:42.884Z,341.00
2024-02-02T11:04:42.862Z,343.00
2024-02-02T11:05:43.825Z,343.00
2024-02-02T11:06:44.981Z,344.00
2024-02-02T11:07:45.416Z,341.00
2024-02-02T11:08:46.295Z,344.00
2024-02-02T11:09:47.176Z,346.00
2024-02-02T11:10:48.059Z,346.00
2024-02-02T11:11:48.941Z,345.00
2024-02-02T11:12:49.919Z,345.00
2024-02-02T11:13:50.745Z,346.00
2024-02-02T11:14:51.629Z,342.00
2024-02-02T11:15:52.533Z,347.00
2024-02-02T11:16:53.394Z,347.00
2024-02-02T11:17:54.366Z,346.00
2024-02-02T11:18:55.421Z,347.00
2024-02-02T11:19:55.895Z,343.00
2024-02-02T11:20:56.790Z,349.00
2024-02-02T11:21:57.653Z,346.00
2024-02-02T11:22:58.570Z,349.00
2024-02-02T11:23:59.467Z,348.00
2024-02-02T11:25:00.452Z,348.00
2024-02-02T11:26:01.301Z,349.00
2024-02-02T11:27:02.217Z,349.00
2024-02-02T11:28:03.124Z,348.00
2024-02-02T11:29:03.978Z,347.00
2024-02-02T11:30:04.890Z,348.00
2024-02-02T11:31:05.838Z,350.00
2024-02-02T11:32:06.718Z,351.00
2024-02-02T11:33:07.803Z,350.00
2024-02-02T11:34:08.538Z,350.00
2024-02-02T11:35:08.991Z,349.00
2024-02-02T11:36:09.949Z,345.00
2024-02-02T11:37:10.796Z,347.00
2024-02-02T11:38:11.730Z,346.00
2024-02-02T11:39:12.645Z,341.00
2024-02-02T11:40:13.505Z,341.00
2024-02-02T11:41:14.386Z,349.00
2024-02-02T11:42:15.311Z,348.00
2024-02-02T11:43:16.251Z,340.00
2024-02-02T11:44:17.094Z,345.00
2024-02-02T11:45:18.034Z,346.00
2024-02-02T11:46:18.939Z,345.00
2024-02-02T11:47:19.789Z,346.00
2024-02-02T11:48:20.782Z,342.00
2024-02-02T11:49:21.243Z,340.00
2024-02-02T11:50:22.132Z,346.00
2024-02-02T11:51:23.066Z,345.00
2024-02-02T11:52:23.932Z,345.00
2024-02-02T11:53:24.986Z,342.00
2024-02-02T11:54:25.362Z,344.00
2024-02-02T11:55:26.265Z,342.00
2024-02-02T11:56:27.138Z,344.00
2024-02-02T11:57:28.051Z,343.00
2024-02-02T11:58:29.060Z,342.00
2024-02-02T11:59:29.429Z,342.00
2024-02-02T12:00:30.317Z,342.00
2024-02-02T12:01:31.214Z,346.00
2024-02-02T12:02:32.077Z,347.00
2024-02-02T12:03:33.102Z,351.00
2024-02-02T12:04:33.981Z,347.00
2024-02-02T12:05:34.831Z,344.00
2024-02-02T12:06:35.817Z,344.00
2024-02-02T12:07:36.781Z,346.00
2024-02-02T12:08:37.348Z,350.00
2024-02-02T12:09:37.878Z,349.00
2024-02-02T12:10:38.269Z,346.00
2024-02-02T12:11:44.198Z,350.00
2024-02-02T12:12:40.933Z,347.00
2024-02-02T12:13:40.858Z,345.00
2024-02-02T12:14:41.705Z,345.00
2024-02-02T12:15:42.631Z,345.00
2024-02-02T12:16:43.485Z,347.00
2024-02-02T12:17:44.377Z,345.00
2024-02-02T12:18:45.420Z,348.00
2024-02-02T12:19:46.009Z,349.00
2024-02-02T12:20:46.396Z,351.00
2024-02-02T12:21:47.281Z,349.00
2024-02-02T12:22:48.159Z,345.00
2024-02-02T12:23:49.070Z,346.00
2024-02-02T12:24:49.965Z,346.00
2024-02-02T12:25:50.840Z,346.00
2024-02-02T12:26:51.712Z,346.00
2024-02-02T12:27:52.598Z,350.00
2024-02-02T12:28:53.635Z,346.00
2024-02-02T12:29:54.054Z,349.00
2024-02-02T12:30:54.887Z,346.00
2024-02-02T12:31:55.800Z,351.00
2024-02-02T12:32:56.852Z,352.00
2024-02-02T12:33:57.380Z,353.00
2024-02-02T12:34:57.845Z,355.00
2024-02-02T12:36:04.352Z,351.00
2024-02-02T12:37:00.668Z,352.00
2024-02-02T12:38:00.113Z,356.00
2024-02-02T12:39:01.271Z,357.00
2024-02-02T12:40:01.668Z,358.00
2024-02-02T12:41:02.516Z,358.00
2024-02-02T12:42:04.725Z,357.00
2024-02-02T12:43:04.180Z,353.00
2024-02-02T12:44:05.134Z,349.00
2024-02-02T12:45:06.014Z,350.00
2024-02-02T12:46:06.875Z,351.00
2024-02-02T12:47:07.869Z,358.00
2024-02-02T12:48:08.462Z,356.00
2024-02-02T12:49:09.124Z,362.00
2024-02-02T12:50:09.744Z,355.00
2024-02-02T12:51:10.176Z,349.00
2024-02-02T12:52:11.046Z,346.00
2024-02-02T12:53:11.922Z,349.00
2024-02-02T12:54:12.905Z,352.00
2024-02-02T12:55:13.779Z,355.00
2024-02-02T12:56:14.637Z,349.00
2024-02-02T12:57:15.593Z,348.00
2024-02-02T12:58:16.441Z,352.00
2024-02-02T12:59:17.505Z,349.00
2024-02-02T13:00:17.999Z,345.00
2024-02-02T13:01:18.537Z,347.00
2024-02-02T13:02:18.930Z,354.00
2024-02-02T13:03:19.813Z,346.00
2024-02-02T13:04:20.854Z,344.00
2024-02-02T13:05:21.271Z,343.00
2024-02-02T13:06:22.199Z,345.00
2024-02-02T13:07:23.079Z,348.00
2024-02-02T13:08:23.940Z,344.00
2024-02-02T13:09:24.892Z,346.00
2024-02-02T13:10:25.730Z,349.00
2024-02-02T13:11:26.703Z,348.00
2024-02-02T13:12:27.579Z,345.00
2024-02-02T13:13:28.450Z,347.00
2024-02-02T13:14:29.500Z,349.00
2024-02-02T13:15:29.934Z,347.00
2024-02-02T13:16:30.799Z,347.00
2024-02-02T13:17:31.747Z,344.00
2024-02-02T13:18:32.622Z,344.00
2024-02-02T13:19:33.717Z,340.00
2024-02-02T13:20:34.229Z,340.00
2024-02-02T13:21:35.156Z,345.00
2024-02-02T13:22:36.019Z,350.00
2024-02-02T13:23:36.902Z,352.00
2024-02-02T13:24:37.950Z,351.00
2024-02-02T13:25:38.304Z,353.00
2024-02-02T13:26:39.188Z,353.00
2024-02-02T13:27:40.158Z,352.00
2024-02-02T13:28:41.055Z,351.00
2024-02-02T13:29:42.000Z,350.00
2024-02-02T13:30:42.906Z,349.00
2024-02-02T13:31:43.746Z,352.00
2024-02-02T13:32:44.629Z,353.00
2024-02-02T13:33:47.645Z,354.00
2024-02-02T13:34:46.423Z,351.00
2024-02-02T13:35:46.809Z,350.00
2024-02-02T13:36:47.698Z,345.00
2024-02-02T13:37:48.576Z,343.00
2024-02-02T13:38:49.462Z,344.00
2024-02-02T13:39:50.360Z,346.00
2024-02-02T13:40:51.314Z,341.00
2024-02-02T13:41:52.144Z,345.00
2024-02-02T13:42:53.033Z,351.00
2024-02-02T13:43:53.914Z,353.00
2024-02-02T13:44:54.818Z,352.00
2024-02-02T13:45:55.719Z,352.00
2024-02-02T13:46:56.675Z,350.00
2024-02-02T13:47:57.827Z,353.00
2024-02-02T13:48:58.351Z,351.00
2024-02-02T13:49:58.893Z,351.00
2024-02-02T13:50:59.902Z,350.00
2024-02-02T13:52:00.749Z,349.00
2024-02-02T13:53:01.630Z,351.00
2024-02-02T13:54:02.561Z,352.00
2024-02-02T13:55:03.417Z,353.00
2024-02-02T13:56:04.452Z,354.00
2024-02-02T13:57:04.872Z,355.00
2024-02-02T13:58:05.741Z,355.00
2024-02-02T13:59:06.612Z,354.00
2024-02-02T14:00:07.606Z,351.00
2024-02-02T14:01:08.059Z,352.00
2024-02-02T14:02:08.946Z,354.00
2024-02-02T14:03:09.867Z,350.00
2024-02-02T14:04:10.774Z,351.00
2024-02-02T14:05:11.629Z,349.00
2024-02-02T14:06:12.582Z,353.00
2024-02-02T14:07:13.581Z,349.00
2024-02-02T14:08:14.446Z,349.00
2024-02-02T14:09:15.380Z,343.00
2024-02-02T14:10:16.239Z,349.00
2024-02-02T14:11:17.262Z,348.00
2024-02-02T14:12:17.694Z,349.00
2024-02-02T14:13:18.554Z,344.00
2024-02-02T14:14:19.436Z,342.00
2024-02-02T14:15:20.373Z,339.00
2024-02-02T14:16:21.266Z,342.00
2024-02-02T14:17:22.155Z,343.00
2024-02-02T14:18:23.042Z,344.00
2024-02-02T14:19:23.976Z,347.00
2024-02-02T14:20:24.852Z,345.00
2024-02-02T14:21:25.898Z,345.00
2024-02-02T14:22:26.275Z,347.00
2024-02-02T14:23:27.174Z,345.00
2024-02-02T14:24:28.101Z,350.00
2024-02-02T14:25:28.956Z,349.00
2024-02-02T14:26:29.874Z,347.00
2024-02-02T14:27:30.786Z,348.00
2024-02-02T14:28:31.662Z,347.00
2024-02-02T14:29:32.539Z,348.00
2024-02-02T14:30:33.465Z,348.00
2024-02-02T14:31:34.349Z,344.00
2024-02-02T14:32:35.249Z,346.00
2024-02-02T14:33:36.375Z,345.00
2024-02-02T14:34:36.927Z,344.00
2024-02-02T14:35:37.320Z,341.00
2024-02-02T14:36:38.296Z,344.00
2024-02-02T14:37:38.689Z,342.00
2024-02-02T14:38:39.571Z,345.00
2024-02-02T14:39:40.552Z,344.00
2024-02-02T14:40:41.393Z,347.00
2024-02-02T14:41:42.316Z,350.00
2024-02-02T14:42:43.373Z,349.00
2024-02-02T14:43:43.832Z,349.00
2024-02-02T14:44:44.750Z,347.00
2024-02-02T14:45:45.743Z,345.00
2024-02-02T14:46:46.654Z,344.00
2024-02-02T14:47:47.553Z,345.00
2024-02-02T14:48:48.479Z,343.00
2024-02-02T14:49:49.394Z,348.00
2024-02-02T14:50:50.257Z,341.00
2024-02-02T14:51:51.291Z,338.00
2024-02-02T14:52:51.667Z,341.00
2024-02-02T14:53:52.547Z,352.00
2024-02-02T14:54:53.430Z,349.00
2024-02-02T14:55:54.304Z,346.00
2024-02-02T14:56:55.245Z,352.00
2024-02-02T14:57:56.109Z,350.00
2024-02-02T14:58:57.016Z,354.00